sensor_id;sensor_type;location;lat;lon;timestamp;temperature;humidity
28010;DHT22;15334;49.494;8.410;2022-08-21T19:50:34;22.40;86.50
28010;DHT22;15334;49.494;8.410;2022-08-21T19:53:02;21.80;87.80
28010;DHT22;15334;49.494;8.410;2022-08-21T19:55:41;21.80;88.20
28010;DHT22;15334;49.494;8.410;2022-08-21T19:58:21;21.90;88.20
28010;DHT22;15334;49.494;8.410;2022-08-21T20:00:50;21.90;87.50
28010;DHT22;15334;49.494;8.410;2022-08-21T20:03:18;22.10;88.70
28010;DHT22;15334;49.494;8.410;2022-08-21T20:05:48;22.00;88.30
28010;DHT22;15334;49.494;8.410;2022-08-21T20:08:19;22.10;88.00
28010;DHT22;15334;49.494;8.410;2022-08-21T20:10:48;22.10;88.10
28010;DHT22;15334;49.494;8.410;2022-08-21T20:13:16;22.10;88.40
28010;DHT22;15334;49.494;8.410;2022-08-21T20:15:48;22.20;88.00
28010;DHT22;15334;49.494;8.410;2022-08-21T20:18:20;22.10;88.10
28010;DHT22;15334;49.494;8.410;2022-08-21T20:20:54;22.10;88.10
28010;DHT22;15334;49.494;8.410;2022-08-21T20:23:23;22.10;88.40
28010;DHT22;15334;49.494;8.410;2022-08-21T20:25:56;22.00;88.30
28010;DHT22;15334;49.494;8.410;2022-08-21T20:28:28;22.00;88.80
28010;DHT22;15334;49.494;8.410;2022-08-21T20:30:56;22.00;88.70
28010;DHT22;15334;49.494;8.410;2022-08-21T20:33:25;21.90;89.20
28010;DHT22;15334;49.494;8.410;2022-08-21T20:35:54;21.90;89.40
28010;DHT22;15334;49.494;8.410;2022-08-21T20:38:25;21.90;89.70
28010;DHT22;15334;49.494;8.410;2022-08-21T20:40:54;21.90;90.10
28010;DHT22;15334;49.494;8.410;2022-08-21T20:43:22;21.80;90.10
28010;DHT22;15334;49.494;8.410;2022-08-21T20:45:50;21.80;90.10
28010;DHT22;15334;49.494;8.410;2022-08-21T20:48:23;21.80;90.20
28010;DHT22;15334;49.494;8.410;2022-08-21T20:51:00;21.90;90.20
28010;DHT22;15334;49.494;8.410;2022-08-21T20:53:35;21.90;90.20
28010;DHT22;15334;49.494;8.410;2022-08-21T20:56:13;21.90;90.00
28010;DHT22;15334;49.494;8.410;2022-08-21T20:58:49;22.00;90.00
28010;DHT22;15334;49.494;8.410;2022-08-21T21:01:22;22.00;89.00
28010;DHT22;15334;49.494;8.410;2022-08-21T21:03:56;22.00;90.50
28010;DHT22;15334;49.494;8.410;2022-08-21T21:06:31;22.00;90.00
28010;DHT22;15334;49.494;8.410;2022-08-21T21:09:06;22.00;90.30
28010;DHT22;15334;49.494;8.410;2022-08-21T21:11:42;22.10;90.90
28010;DHT22;15334;49.494;8.410;2022-08-21T21:14:18;22.10;91.10
28010;DHT22;15334;49.494;8.410;2022-08-21T21:16:51;22.10;91.50
28010;DHT22;15334;49.494;8.410;2022-08-21T21:19:24;22.00;91.00
28010;DHT22;15334;49.494;8.410;2022-08-21T21:22:08;22.10;91.10
28010;DHT22;15334;49.494;8.410;2022-08-21T21:24:42;22.20;90.80
28010;DHT22;15334;49.494;8.410;2022-08-21T21:27:19;22.20;90.70
28010;DHT22;15334;49.494;8.410;2022-08-21T21:29:52;22.30;90.60
28010;DHT22;15334;49.494;8.410;2022-08-21T21:32:22;22.20;90.70
28010;DHT22;15334;49.494;8.410;2022-08-21T21:34:50;22.20;90.80
28010;DHT22;15334;49.494;8.410;2022-08-21T21:37:24;22.30;90.80
28010;DHT22;15334;49.494;8.410;2022-08-21T21:39:59;22.30;91.40
28010;DHT22;15334;49.494;8.410;2022-08-21T21:42:38;22.30;91.70
28010;DHT22;15334;49.494;8.410;2022-08-21T21:45:21;22.30;91.00
28010;DHT22;15334;49.494;8.410;2022-08-21T21:48:11;22.30;91.50
28010;DHT22;15334;49.494;8.410;2022-08-21T21:51:15;22.30;93.70
28010;DHT22;15334;49.494;8.410;2022-08-21T21:53:55;22.20;92.80
28010;DHT22;15334;49.494;8.410;2022-08-21T21:56:33;22.10;92.40
28010;DHT22;15334;49.494;8.410;2022-08-21T21:59:33;22.00;92.90
28010;DHT22;15334;49.494;8.410;2022-08-21T22:02:11;21.90;93.30
28010;DHT22;15334;49.494;8.410;2022-08-21T22:04:50;21.80;93.40
28010;DHT22;15334;49.494;8.410;2022-08-21T22:07:26;21.70;94.00
28010;DHT22;15334;49.494;8.410;2022-08-21T22:10:09;21.60;93.90
28010;DHT22;15334;49.494;8.410;2022-08-21T22:13:02;21.60;94.50
28010;DHT22;15334;49.494;8.410;2022-08-21T22:15:36;21.50;94.80
28010;DHT22;15334;49.494;8.410;2022-08-21T22:18:09;21.40;95.10
28010;DHT22;15334;49.494;8.410;2022-08-21T22:20:41;21.40;95.20
28010;DHT22;15334;49.494;8.410;2022-08-21T22:23:15;21.30;95.80
28010;DHT22;15334;49.494;8.410;2022-08-21T22:25:49;21.20;95.60
28010;DHT22;15334;49.494;8.410;2022-08-21T22:28:20;21.10;95.80
28010;DHT22;15334;49.494;8.410;2022-08-21T22:30:54;21.10;95.60
28010;DHT22;15334;49.494;8.410;2022-08-21T22:33:25;21.00;95.30
28010;DHT22;15334;49.494;8.410;2022-08-21T22:35:55;20.90;95.00
28010;DHT22;15334;49.494;8.410;2022-08-21T22:38:30;20.90;95.10
28010;DHT22;15334;49.494;8.410;2022-08-21T22:41:12;21.00;94.80
28010;DHT22;15334;49.494;8.410;2022-08-21T22:43:55;21.00;94.70
28010;DHT22;15334;49.494;8.410;2022-08-21T22:46:31;21.00;94.50
28010;DHT22;15334;49.494;8.410;2022-08-21T22:49:06;21.10;94.40
28010;DHT22;15334;49.494;8.410;2022-08-21T22:51:37;21.10;94.30
28010;DHT22;15334;49.494;8.410;2022-08-21T22:54:08;21.10;94.30
28010;DHT22;15334;49.494;8.410;2022-08-21T22:56:45;21.10;93.90
28010;DHT22;15334;49.494;8.410;2022-08-21T22:59:22;21.10;93.80
28010;DHT22;15334;49.494;8.410;2022-08-21T23:01:56;21.10;93.90
28010;DHT22;15334;49.494;8.410;2022-08-21T23:04:26;21.00;94.10
28010;DHT22;15334;49.494;8.410;2022-08-21T23:06:56;21.00;93.20
28010;DHT22;15334;49.494;8.410;2022-08-21T23:09:31;21.00;93.10
28010;DHT22;15334;49.494;8.410;2022-08-21T23:12:03;21.00;92.80
28010;DHT22;15334;49.494;8.410;2022-08-21T23:14:47;21.00;92.50
28010;DHT22;15334;49.494;8.410;2022-08-21T23:17:28;21.00;92.30
28010;DHT22;15334;49.494;8.410;2022-08-21T23:20:05;21.00;92.30
28010;DHT22;15334;49.494;8.410;2022-08-21T23:22:46;21.00;92.10
28010;DHT22;15334;49.494;8.410;2022-08-21T23:25:31;21.00;92.00
28010;DHT22;15334;49.494;8.410;2022-08-21T23:28:12;21.00;92.00
28010;DHT22;15334;49.494;8.410;2022-08-21T23:30:48;21.00;92.30
28010;DHT22;15334;49.494;8.410;2022-08-21T23:33:30;21.00;92.10
28010;DHT22;15334;49.494;8.410;2022-08-21T23:36:13;21.00;91.90
28010;DHT22;15334;49.494;8.410;2022-08-21T23:39:11;21.00;91.90
28010;DHT22;15334;49.494;8.410;2022-08-21T23:42:07;21.00;92.00
28010;DHT22;15334;49.494;8.410;2022-08-21T23:44:47;21.10;91.90
28010;DHT22;15334;49.494;8.410;2022-08-21T23:47:32;21.10;91.90
